Main page
METAR-TAF:

METAR-TAF

Airports :

Norrköping Airport

Norrköping, Sweden

latitude: 58-35N, longitude: 016-09E, elevation: 34 m

Current weather observation

The report was made 28 minutes ago, at 10:20 UTC
Wind 9 kt from the West
Temperature 3°C
Humidity 87%
Pressure 1025 hPa
Visibility 10 km or more

METAR: ESSP 191020Z AUTO 27009KT 9999 NCD 03/01 Q1025

Time: 11:48 (10:48 UTC)

Forecast

The report was made 23 hours and 18 minutes ago, at 11:30 UTC
Forecast valid from 18 at 12 UTC to 18 at 14 UTC
Wind 8 kt from the South/Southwest
Visibility 10 km or more
Few clouds at a height of 1500 ft
Scattered clouds at a height of 3500 ft

TAF: ESSP 181130Z 1812/1814 21008KT 9999 FEW015 SCT035

Weather observations and forecasts of more than 4000 airports (METAR and TAF reports).

The available stations are represented by yellow and red dots on the map.

Hover mouse over dot to see the name of the station.

Then click to see weather observations and forecasts.

To change the map : click on the green buttons with a black cross to zoom in, on the green button with a dash to zoom out, or on the green arrows for adjacent maps.


METAR-TAF: